FW6313 Weather Reports


Display with metric or nautical units.
time (UTC)temp
F
wind
direction
speed
MPH
gust
MPH
rain 1hr
in
rain 24hr
in
rain mn
in
humidity
%
barometer
mb
20260507150109 34 320 0.0 6.0 0.00 0.52 0.00 64 1021.2
20260507145558 32 11 1.0 5.0 0.00 0.52 0.00 68 1021.0
20260507145102 32 26 2.0 6.0 0.00 0.52 0.00 71 1020.9
20260507144556 32 26 3.0 6.0 0.00 0.52 0.00 69 1021.0
20260507144055 32 12 3.0 6.0 0.00 0.52 0.00 68 1021.0
20260507143555 31 62 0.0 0.0 0.00 0.52 0.00 67 1020.8
20260507143058 31 62 0.0 3.0 0.00 0.52 0.00 69 1020.6
20260507142553 31 62 1.0 3.0 0.00 0.52 0.00 70 1020.7
20260507142053 31 62 1.0 3.0 0.00 0.52 0.00 73 1020.9
20260507141553 31 62 0.0 0.0 0.00 0.52 0.00 72 1020.9
20260507141053 30 62 0.0 0.0 0.00 0.52 0.00 72 1020.8
20260507140552 30 62 0.0 0.0 0.00 0.52 0.00 72 1021.0
20260507140053 30 62 0.0 0.0 0.00 0.52 0.00 72 1021.0
20260507135556 30 62 0.0 0.0 0.00 0.52 0.00 72 1021.0
20260507135055 30 62 0.0 0.0 0.00 0.52 0.00 73 1021.0
20260507134558 29 62 0.0 0.0 0.00 0.52 0.00 74 1021.0
20260507134052 29 62 0.0 0.0 0.00 0.52 0.00 71 1020.8
20260507133549 29 62 0.0 0.0 0.00 0.52 0.00 70 1021.0
20260507133051 29 62 0.0 0.0 0.00 0.52 0.00 71 1021.0
20260507132549 29 62 0.0 0.0 0.00 0.52 0.00 71 1021.0
20260507132048 29 62 0.0 2.0 0.00 0.52 0.00 72 1021.0
20260507131547 29 62 0.0 2.0 0.00 0.52 0.00 72 1021.0
20260507131047 29 62 0.0 0.0 0.00 0.52 0.00 71 1021.2
20260507130546 29 62 0.0 0.0 0.00 0.52 0.00 70 1021.0
20260507130058 29 62 0.0 0.0 0.00 0.52 0.00 69 1020.9
20260507125546 29 62 0.0 4.0 0.00 0.52 0.00 70 1020.8
20260507125047 29 62 2.0 4.0 0.00 0.52 0.00 69 1020.9
20260507124604 29 62 0.0 0.0 0.00 0.52 0.00 70 1020.9
20260507124046 29 62 0.0 0.0 0.00 0.52 0.00 72 1020.8
20260507123546 29 62 0.0 0.0 0.00 0.52 0.00 72 1020.8
20260507123102 29 62 0.0 0.0 0.00 0.52 0.00 71 1020.8
20260507122543 29 62 0.0 0.0 0.00 0.52 0.00 70 1020.8
20260507122042 29 62 0.0 0.0 0.00 0.52 0.00 70 1020.8
20260507121552 29 62 0.0 0.0 0.00 0.52 0.00 70 1020.7
20260507121042 29 62 0.0 0.0 0.00 0.52 0.00 70 1020.7
20260507120545 29 62 0.0 0.0 0.00 0.52 0.00 70 1020.8
20260507120042 29 62 0.0 0.0 0.00 0.52 0.00 70 1020.8
20260507115540 29 62 0.0 0.0 0.00 0.52 0.00 71 1020.8
20260507115040 29 62 0.0 0.0 0.00 0.52 0.00 70 1020.9
20260507114539 29 62 0.0 0.0 0.00 0.52 0.00 69 1020.8
20260507114039 29 62 0.0 0.0 0.00 0.52 0.00 70 1020.9
20260507113543 29 62 0.0 0.0 0.00 0.52 0.00 71 1020.9
20260507113038 29 62 0.0 0.0 0.00 0.52 0.00 70 1021.0
20260507112540 29 62 0.0 0.0 0.00 0.52 0.00 68 1021.1
20260507112036 29 62 0.0 0.0 0.00 0.52 0.00 67 1021.0
20260507111536 29 62 0.0 0.0 0.00 0.52 0.00 67 1021.1
20260507111036 29 62 0.0 0.0 0.00 0.52 0.00 67 1021.2
20260507110536 29 62 0.0 0.0 0.00 0.52 0.00 67 1021.1
20260507110036 29 62 0.0 0.0 0.00 0.52 0.00 67 1021.0
20260507105535 29 62 0.0 0.0 0.00 0.52 0.00 67 1021.0
20260507105035 29 62 0.0 0.0 0.00 0.52 0.00 66 1021.1
20260507104536 29 62 0.0 0.0 0.00 0.52 0.00 67 1021.1
20260507104039 29 62 0.0 0.0 0.00 0.52 0.00 66 1021.1
20260507103534 29 62 0.0 0.0 0.00 0.52 0.00 67 1021.0
20260507103034 29 62 0.0 0.0 0.00 0.52 0.00 67 1021.1
20260507102534 29 62 0.0 0.0 0.00 0.52 0.00 67 1021.2
20260507102036 29 62 0.0 0.0 0.00 0.52 0.00 68 1021.3
20260507101540 29 62 0.0 0.0 0.00 0.52 0.00 67 1021.2
20260507101033 29 62 0.0 0.0 0.00 0.52 0.00 67 1021.3
20260507100532 29 62 0.0 0.0 0.00 0.52 0.00 67 1021.2
20260507100045 29 62 0.0 0.0 0.00 0.52 0.00 67 1021.3
20260507095532 29 62 0.0 0.0 0.00 0.52 0.00 66 1021.4
20260507095032 29 62 0.0 0.0 0.00 0.52 0.00 66 1021.4
20260507094531 29 62 0.0 0.0 0.00 0.52 0.00 67 1021.4
20260507094031 29 62 0.0 0.0 0.00 0.52 0.00 67 1021.4
20260507093530 29 62 0.0 0.0 0.00 0.52 0.00 67 1021.4
20260507093030 29 62 0.0 0.0 0.00 0.52 0.00 67 1021.5
20260507092530 30 62 0.0 0.0 0.00 0.52 0.00 66 1021.4
20260507092029 30 62 0.0 0.0 0.00 0.52 0.00 66 1021.5
20260507091529 30 62 0.0 3.0 0.00 0.52 0.00 66 1021.5
20260507091029 30 62 0.0 3.0 0.00 0.52 0.00 66 1021.5
20260507090527 30 62 0.0 0.0 0.00 0.52 0.00 65 1021.6
20260507090031 30 62 0.0 0.0 0.00 0.52 0.00 64 1021.5
20260507085529 30 62 0.0 0.0 0.00 0.52 0.00 64 1021.3
20260507085028 30 62 0.0 0.0 0.00 0.52 0.00 64 1021.3
20260507084527 30 62 0.0 0.0 0.00 0.52 0.00 63 1021.4
20260507084027 30 62 0.0 0.0 0.00 0.52 0.00 63 1021.4
20260507083526 30 62 0.0 0.0 0.00 0.52 0.00 63 1021.4
20260507083029 30 62 0.0 0.0 0.00 0.52 0.00 64 1021.5
20260507082526 30 62 0.0 0.0 0.00 0.52 0.00 64 1021.6
20260507082024 30 62 0.0 0.0 0.00 0.52 0.00 64 1021.6
20260507081524 30 62 0.0 0.0 0.00 0.52 0.00 64 1021.7
20260507081024 30 62 0.0 0.0 0.00 0.52 0.00 64 1021.7
20260507080525 30 62 0.0 0.0 0.00 0.52 0.00 64 1021.7
20260507080024 30 62 0.0 0.0 0.00 0.52 0.00 65 1021.8
20260507075526 30 62 0.0 0.0 0.00 0.52 0.00 65 1021.7
20260507075022 30 62 0.0 0.0 0.00 0.52 0.00 62 1021.9
20260507074522 31 62 0.0 0.0 0.00 0.52 0.00 62 1021.8
20260507074021 31 62 0.0 0.0 0.00 0.52 0.00 62 1021.8
20260507073524 31 62 0.0 0.0 0.00 0.52 0.00 63 1021.9
20260507073019 31 62 0.0 0.0 0.00 0.52 0.00 63 1021.9
20260507072519 31 62 0.0 0.0 0.00 0.52 0.00 62 1022.0
20260507072018 31 62 0.0 0.0 0.00 0.52 0.00 62 1021.9
20260507071517 31 62 0.0 5.0 0.00 0.52 0.00 62 1021.8
20260507071020 32 62 0.0 5.0 0.00 0.52 0.00 61 1021.7
20260507070519 32 79 0.0 5.0 0.00 0.52 0.00 60 1021.7
20260507070016 32 80 0.0 3.0 0.00 0.52 0.00 59 1021.8
20260507065519 32 80 0.0 4.0 0.00 0.52 0.00 60 1021.9
20260507065016 32 80 0.0 4.0 0.00 0.52 0.00 59 1021.9
20260507064515 32 161 0.0 0.0 0.00 0.52 0.00 58 1022.0
20260507064013 33 161 0.0 0.0 0.00 0.52 0.00 57 1022.0
20260507063512 33 161 0.0 0.0 0.00 0.52 0.00 55 1022.1
20260507063011 33 161 0.0 0.0 0.00 0.52 0.00 55 1022.1
20260507062510 33 161 0.0 0.0 0.00 0.52 0.00 55 1022.0
20260507062009 33 161 0.0 0.0 0.00 0.52 0.00 58 1021.9
20260507061508 33 161 0.0 0.0 0.00 0.52 0.00 54 1021.9
20260507061008 33 161 0.0 0.0 0.00 0.52 0.00 54 1021.7
20260507060511 33 161 0.0 0.0 0.00 0.52 0.00 54 1021.7
20260507060017 33 161 0.0 0.0 0.00 0.52 0.00 52 1021.6
20260507055505 33 161 0.0 2.0 0.00 0.52 0.52 53 1021.6
20260507055009 33 161 0.0 4.0 0.00 0.52 0.52 55 1021.7
20260507054505 33 161 0.0 0.0 0.00 0.52 0.52 52 1021.7
20260507054005 33 161 0.0 0.0 0.00 0.52 0.52 53 1021.7
20260507053504 33 161 0.0 0.0 0.00 0.52 0.52 54 1021.7
20260507053005 33 161 0.0 0.0 0.00 0.52 0.52 54 1021.6
20260507052504 33 161 0.0 0.0 0.00 0.52 0.52 53 1021.6
20260507052004 33 161 0.0 4.0 0.00 0.52 0.52 54 1021.6
20260507051507 33 161 1.0 4.0 0.00 0.52 0.52 54 1021.7
20260507051004 33 161 0.0 4.0 0.00 0.52 0.52 54 1021.6
20260507050504 34 160 0.0 5.0 0.00 0.52 0.52 54 1021.5
20260507050005 33 164 0.0 3.0 0.00 0.52 0.52 53 1021.5
20260507045504 34 182 0.0 4.0 0.00 0.53 0.52 55 1021.7
20260507045004 34 188 0.0 4.0 0.00 0.53 0.52 54 1021.7
20260507044503 33 194 0.0 0.0 0.00 0.53 0.52 54 1021.6
20260507044003 34 195 0.0 0.0 0.00 0.53 0.52 54 1021.6
20260507043503 34 195 0.0 0.0 0.00 0.53 0.52 52 1021.5
20260507043002 34 254 0.0 0.0 0.00 0.53 0.52 54 1021.8
20260507042501 34 256 0.0 0.0 0.00 0.53 0.52 54 1022.0
20260507042002 34 256 0.0 0.0 0.00 0.53 0.52 53 1022.0
20260507041506 34 256 0.0 0.0 0.00 0.53 0.52 54 1021.9
20260507041003 34 256 0.0 0.0 0.00 0.53 0.52 55 1022.0
20260507040502 34 256 0.0 0.0 0.00 0.53 0.52 55 1021.9
20260507040001 34 256 0.0 0.0 0.00 0.53 0.52 53 1022.0
20260507035600 34 256 0.0 0.0 0.00 0.53 0.52 54 1021.8
20260507035102 34 256 0.0 0.0 0.00 0.53 0.52 54 1021.8
20260507034600 34 256 0.0 0.0 0.00 0.53 0.52 53 1021.8
20260507034059 35 256 0.0 0.0 0.00 0.53 0.52 55 1021.7
20260507033558 35 256 0.0 0.0 0.00 0.53 0.52 54 1021.6
20260507033058 35 256 0.0 0.0 0.00 0.53 0.52 54 1021.5
20260507032557 35 256 0.0 0.0 0.00 0.53 0.52 54 1021.4
20260507032056 35 256 0.0 0.0 0.00 0.53 0.52 54 1021.4
20260507031556 35 256 0.0 0.0 0.00 0.53 0.52 53 1021.3
20260507031059 35 256 0.0 0.0 0.00 0.53 0.52 53 1021.1
20260507030553 35 256 0.0 0.0 0.00 0.53 0.52 53 1021.1
20260507030054 35 256 0.0 0.0 0.00 0.53 0.52 53 1021.0
20260507025600 35 256 0.0 0.0 0.00 0.54 0.52 52 1020.8
20260507025054 35 256 0.0 1.0 0.00 0.54 0.52 52 1020.7
20260507024603 36 256 0.0 1.0 0.00 0.54 0.52 52 1020.6
20260507024051 36 256 0.0 3.0 0.00 0.54 0.52 52 1020.5
20260507023554 36 272 0.0 4.0 0.00 0.54 0.52 51 1020.5
20260507023050 36 272 0.0 4.0 0.00 0.54 0.52 52 1020.5
20260507022554 36 262 0.0 2.0 0.00 0.54 0.52 51 1020.4
20260507022050 36 262 0.0 0.0 0.00 0.54 0.52 51 1020.4
20260507021549 36 263 0.0 3.0 0.00 0.54 0.52 51 1020.4
20260507021049 36 257 0.0 3.0 0.00 0.54 0.52 51 1020.3
20260507020548 36 249 0.0 1.0 0.00 0.54 0.52 51 1020.3
20260507020104 37 232 0.0 6.0 0.00 0.54 0.52 51 1020.2
20260507015546 37 269 0.0 10.0 0.00 0.55 0.52 50 1020.0
20260507015045 37 235 0.0 4.0 0.00 0.55 0.52 50 1019.9
20260507014553 37 267 0.0 6.0 0.00 0.55 0.52 50 1019.9
20260507014045 37 266 0.0 6.0 0.00 0.55 0.52 50 1019.8
20260507013543 38 262 0.0 6.0 0.00 0.55 0.52 51 1019.9
20260507013048 38 207 0.0 6.0 0.00 0.55 0.52 50 1019.8
20260507012543 38 208 0.0 5.0 0.00 0.55 0.52 50 1019.7
20260507012044 38 257 0.0 10.0 0.00 0.55 0.52 48 1019.7
20260507011543 38 266 1.0 12.0 0.00 0.55 0.52 48 1019.8
20260507011043 38 246 0.0 4.0 0.00 0.55 0.52 50 1019.7
20260507010542 38 240 0.0 8.0 0.00 0.55 0.52 49 1019.7
20260507010042 39 211 0.0 8.0 0.00 0.55 0.52 50 1019.7
20260507005542 39 209 0.0 10.0 0.00 0.55 0.52 51 1019.7
20260507005041 39 263 2.0 10.0 0.00 0.55 0.52 47 1019.6
20260507004543 39 182 2.0 11.0 0.00 0.55 0.52 46 1019.5
20260507004039 39 197 1.0 11.0 0.00 0.55 0.52 47 1019.4
20260507003539 39 254 1.0 7.0 0.00 0.55 0.52 51 1019.3
20260507003038 40 265 0.0 6.0 0.00 0.55 0.52 47 1019.2
20260507002538 40 209 0.0 8.0 0.00 0.55 0.52 47 1019.1
20260507002038 40 258 1.0 13.0 0.00 0.55 0.52 47 1019.0
20260507001538 40 186 1.0 13.0 0.00 0.55 0.52 45 1018.9
20260507001037 41 234 1.0 9.0 0.00 0.55 0.52 46 1018.9
20260507000536 41 259 0.0 8.0 0.00 0.55 0.52 49 1018.9
20260507000035 41 269 1.0 11.0 0.00 0.55 0.52 50 1018.8
20260506235536 41 227 2.0 11.0 0.00 0.56 0.52 51 1018.8
20260506235037 41 202 0.0 11.0 0.00 0.56 0.52 52 1018.8
20260506234538 41 223 1.0 18.0 0.00 0.56 0.52 49 1018.7
20260506234034 41 269 2.0 15.0 0.00 0.56 0.52 52 1018.8
20260506233533 41 240 0.0 8.0 0.00 0.56 0.52 52 1018.6
20260506233032 41 230 2.0 8.0 0.00 0.56 0.52 51 1018.5
20260506232532 42 211 2.0 9.0 0.00 0.56 0.52 52 1018.5
20260506232031 42 236 1.0 9.0 0.00 0.56 0.52 49 1018.4
20260506231543 42 237 2.0 9.0 0.00 0.56 0.52 53 1018.3
20260506231031 42 194 1.0 8.0 0.00 0.56 0.52 54 1018.2
20260506230531 41 214 1.0 10.0 0.00 0.56 0.52 53 1018.2
20260506230037 41 209 1.0 10.0 0.00 0.56 0.52 52 1018.1
20260506225535 41 202 1.0 8.0 0.00 0.57 0.52 54 1017.9
20260506225030 41 257 0.0 7.0 0.01 0.57 0.52 51 1018.0
20260506224530 41 264 0.0 6.0 0.01 0.57 0.52 55 1018.0
20260506224029 41 202 0.0 13.0 0.02 0.57 0.52 56 1017.9
20260506223529 41 211 2.0 13.0 0.02 0.57 0.52 55 1017.9
20260506223044 41 221 0.0 4.0 0.03 0.57 0.52 56 1017.9
20260506222529 41 277 0.0 9.0 0.04 0.57 0.52 54 1017.8
20260506222030 41 274 2.0 12.0 0.04 0.57 0.52 50 1017.8
20260506221529 41 269 1.0 7.0 0.05 0.57 0.52 55 1017.8
20260506221033 41 265 0.0 7.0 0.06 0.57 0.52 60 1017.9
20260506220532 41 234 0.0 3.0 0.07 0.57 0.52 59 1017.9
20260506220030 41 175 0.0 4.0 0.08 0.57 0.52 59 1017.9
20260506215534 42 206 0.0 11.0 0.09 0.60 0.52 53 1017.8
20260506215028 42 265 3.0 11.0 0.09 0.59 0.51 52 1017.8
20260506214528 42 199 0.0 6.0 0.10 0.59 0.51 56 1017.8
20260506214030 42 222 0.0 9.0 0.10 0.57 0.50 56 1017.8
20260506213527 43 268 3.0 11.0 0.11 0.57 0.50 48 1017.8
20260506213031 43 277 0.0 11.0 0.11 0.56 0.49 50 1017.9
20260506212527 43 28 0.0 9.0 0.11 0.56 0.48 53 1017.9
20260506212027 43 325 0.0 5.0 0.12 0.56 0.48 56 1017.8
20260506211537 43 194 0.0 8.0 0.11 0.55 0.47 54 1017.9
20260506211027 43 304 2.0 8.0 0.11 0.54 0.46 56 1017.9
20260506210526 44 236 0.0 1.0 0.11 0.53 0.45 59 1018.0
20260506210033 44 216 0.0 6.0 0.10 0.52 0.44 55 1018.1
20260506205525 44 268 1.0 6.0 0.10 0.57 0.43 55 1018.2
20260506205024 44 213 0.0 6.0 0.10 0.56 0.42 66 1018.2
20260506204524 43 204 0.0 6.0 0.08 0.55 0.40 59 1018.0
20260506204023 43 264 0.0 5.0 0.08 0.54 0.39 60 1018.0
20260506203522 43 273 0.0 5.0 0.09 0.54 0.39 64 1018.2
20260506203027 43 186 1.0 7.0 0.09 0.53 0.38 66 1018.2
20260506202521 42 285 2.0 7.0 0.08 0.52 0.37 61 1018.1
20260506202024 42 207 0.0 4.0 0.08 0.51 0.36 64 1018.1
20260506201531 41 200 0.0 1.0 0.09 0.51 0.36 67 1018.2
20260506201021 41 200 0.0 4.0 0.08 0.50 0.35 68 1018.2
20260506200520 42 200 0.0 4.0 0.08 0.49 0.34 66 1018.1
20260506200021 42 196 0.0 3.0 0.08 0.49 0.34 68 1018.1
20260506195520 43 178 0.0 0.0 0.08 0.66 0.33 65 1017.9
20260506195021 43 220 0.0 0.0 0.08 0.65 0.32 66 1018.0
20260506194526 43 220 0.0 4.0 0.08 0.65 0.32 68 1017.9
20260506194017 42 152 0.0 4.0 0.08 0.64 0.31 68 1017.9
20260506193517 42 157 0.0 4.0 0.08 0.63 0.30 65 1017.9
20260506193017 41 157 0.0 4.0 0.08 0.62 0.28 59 1017.9
20260506192516 41 287 0.0 1.0 0.09 0.62 0.28 69 1018.0
20260506192017 40 287 0.0 2.0 0.08 0.61 0.28 69 1017.9
20260506191517 39 287 0.0 2.0 0.08 0.60 0.27 66 1018.1
20260506191020 39 286 0.0 5.0 0.09 0.60 0.27 73 1018.2
20260506190520 39 286 0.0 5.0 0.09 0.59 0.26 74 1018.1
20260506190015 39 221 0.0 3.0 0.09 0.57 0.25 79 1018.2
20260506185515 37 224 0.0 2.0 0.09 0.66 0.25 77 1018.2
20260506185018 36 224 0.0 4.0 0.09 0.65 0.24 78 1018.2
20260506184514 37 224 0.0 4.0 0.09 0.64 0.23 76 1018.2
20260506184017 37 209 0.0 6.0 0.10 0.64 0.23 74 1018.0
20260506183514 39 209 1.0 6.0 0.10 0.63 0.22 71 1017.9
20260506183023 40 245 0.0 2.0 0.09 0.62 0.21 70 1017.9
20260506182512 41 250 0.0 0.0 0.09 0.61 0.20 67 1017.9
20260506182012 41 250 0.0 1.0 0.10 0.61 0.20 65 1018.0
20260506181512 41 227 0.0 1.0 0.10 0.60 0.19 65 1018.0
20260506181012 41 227 0.0 3.0 0.10 0.59 0.18 65 1018.0
20260506180511 41 227 0.0 3.0 0.10 0.57 0.17 65 1017.9
20260506180012 40 227 0.0 2.0 0.10 0.56 0.16 63 1018.0
20260506175510 39 200 0.0 5.0 0.11 0.62 0.16 69 1018.0
20260506175007 39 200 0.0 5.0 0.11 0.61 0.15 75 1018.0
20260506174510 38 66 0.0 0.0 0.11 0.60 0.14 76 1017.9
20260506174006 37 66 0.0 0.0 0.10 0.59 0.13 78 1017.9
20260506173506 37 66 0.0 0.0 0.10 0.57 0.12 77 1017.9
20260506173005 38 66 0.0 0.0 0.09 0.56 0.11 72 1017.8
20260506172504 38 66 0.0 0.0 0.09 0.56 0.10 73 1017.8
20260506172004 39 65 0.0 0.0 0.09 0.56 0.10 73 1017.7
20260506171503 38 65 0.0 0.0 0.08 0.55 0.09 74 1017.6
20260506171000 37 65 0.0 0.0 0.08 0.54 0.08 74 1017.6
20260506170600 37 65 0.0 0.0 0.07 0.53 0.07 75 1017.6
20260506170115 36 65 0.0 0.0 0.06 0.52 0.06 75 1017.5
20260506165559 36 65 0.0 0.0 0.05 0.55 0.05 77 1017.5
20260506165059 36 65 0.0 0.0 0.04 0.54 0.04 74 1017.5
20260506164601 36 65 0.0 0.0 0.03 0.53 0.03 72 1017.5
20260506164057 37 65 0.0 0.0 0.03 0.53 0.03 73 1017.5
20260506163600 37 65 0.0 0.0 0.02 0.52 0.02 78 1017.4
20260506163110 36 65 0.0 0.0 0.02 0.52 0.02 78 1017.3
20260506162555 37 65 0.0 0.0 0.01 0.51 0.01 77 1017.3
20260506162054 37 65 0.0 0.0 0.01 0.51 0.01 79 1017.1
20260506161552 35 65 0.0 0.0 0.01 0.51 0.01 83 1017.1
20260506161050 34 65 0.0 0.0 0.00 0.50 0.00 83 1017.0
20260506160549 33 65 0.0 0.0 0.00 0.50 0.00 85 1017.0
20260506160048 32 65 0.0 0.0 0.00 0.50 0.00 86 1017.0
20260506155547 31 65 0.0 0.0 0.00 0.54 0.00 86 1017.0
20260506155048 31 65 0.0 0.0 0.00 0.54 0.00 87 1016.9
20260506154546 31 65 0.0 0.0 0.00 0.54 0.00 88 1016.8
20260506154045 31 65 0.0 0.0 0.00 0.54 0.00 90 1016.6
20260506153545 30 65 0.0 0.0 0.00 0.54 0.00 92 1016.5
20260506153044 30 66 0.0 0.0 0.00 0.54 0.00 93 1016.4
20260506152542 28 66 0.0 0.0 0.00 0.54 0.00 92 1016.3
20260506152041 28 66 0.0 0.0 0.00 0.54 0.00 92 1016.3
20260506151543 27 66 0.0 0.0 0.00 0.54 0.00 92 1016.2
20260506151043 27 66 0.0 0.0 0.00 0.54 0.00 91 1016.2
20260506150536 27 66 0.0 0.0 0.00 0.54 0.00 92 1016.2